Time;durP1;ratioP1;P1;durP2;ratioP2;P2;SDS_P1;SDS_P2;PMS_P1;PMS_P2;Temp;Humidity;BMP_temperature;BMP_pressure;BME280_temperature;BME280_humidity;BME280_pressure;Samples;Min_cycle;Max_cycle;Signal;HPM_P1;HPM_P2
2023/01/12 00:01:34;;;;;;;9.57;2.50;;;9.00;99.90;;;;;;5032372;28;20215;-79
2023/01/12 00:04:02;;;;;;;4.20;1.95;;;9.00;99.90;;;;;;5032528;28;20287;-78
2023/01/12 00:06:30;;;;;;;7.05;1.90;;;9.00;99.90;;;;;;5032889;28;20249;-77
2023/01/12 00:08:58;;;;;;;9.82;3.17;;;9.00;99.90;;;;;;5035918;28;20221;-78
2023/01/12 00:11:26;;;;;;;9.57;2.75;;;9.00;99.90;;;;;;5041039;28;20204;-77
2023/01/12 00:13:53;;;;;;;10.98;3.45;;;9.00;99.90;;;;;;5035852;28;20270;-79
2023/01/12 00:16:36;;;;;;;5.80;2.15;;;9.00;99.90;;;;;;5036854;28;20216;-78
2023/01/12 00:19:10;;;;;;;2.53;1.73;;;9.00;99.90;;;;;;5038025;28;20223;-78
2023/01/12 00:21:55;;;;;;;13.02;2.90;;;9.00;99.90;;;;;;5025052;28;20275;-79
2023/01/12 00:24:23;;;;;;;6.72;2.22;;;9.00;99.90;;;;;;5032004;28;20774;-78
2023/01/12 00:26:50;;;;;;;9.07;3.00;;;9.00;99.90;;;;;;5030006;28;20308;-78
2023/01/12 00:29:17;;;;;;;9.23;3.03;;;9.00;99.90;;;;;;5037608;28;20291;-78
2023/01/12 00:31:44;;;;;;;6.10;2.78;;;9.00;99.90;;;;;;5041605;28;20220;-77
2023/01/12 00:34:13;;;;;;;6.38;3.78;;;9.00;99.90;;;;;;5038943;28;20597;-79
2023/01/12 00:36:40;;;;;;;6.88;2.47;;;9.00;99.90;;;;;;5033501;28;20312;-78
2023/01/12 00:39:07;;;;;;;7.07;2.13;;;8.90;99.90;;;;;;5023737;28;20707;-78
2023/01/12 00:47:07;;;;;;;8.00;2.83;;;8.90;99.90;;;;;;5032859;28;20226;-78
2023/01/12 00:49:35;;;;;;;11.82;2.70;;;8.80;99.90;;;;;;5033020;28;20235;-79
2023/01/12 00:52:02;;;;;;;5.80;2.35;;;8.80;99.90;;;;;;5024750;28;20205;-78
2023/01/12 00:54:29;;;;;;;11.20;3.17;;;8.90;99.90;;;;;;5032176;28;20223;-78
2023/01/12 00:56:56;;;;;;;3.65;1.98;;;8.90;99.90;;;;;;5035472;28;20307;-79
2023/01/12 00:59:23;;;;;;;4.07;2.40;;;8.90;99.90;;;;;;5037312;28;20744;-78
2023/01/12 01:01:50;;;;;;;7.03;2.60;;;8.90;99.90;;;;;;5038825;28;20228;-78
2023/01/12 01:04:17;;;;;;;6.43;2.58;;;8.90;99.90;;;;;;5042468;28;20286;-79
2023/01/12 01:06:45;;;;;;;5.80;3.67;;;8.90;99.90;;;;;;5037130;28;20227;-78
2023/01/12 01:09:12;;;;;;;5.75;2.80;;;8.90;99.90;;;;;;5043265;28;20224;-79
2023/01/12 01:11:39;;;;;;;9.57;2.80;;;8.90;99.90;;;;;;5035110;28;20296;-78
2023/01/12 01:14:07;;;;;;;9.63;3.88;;;9.00;99.90;;;;;;5037323;28;20209;-78
2023/01/12 01:16:34;;;;;;;7.93;2.70;;;9.00;99.90;;;;;;5038339;28;20255;-78
2023/01/12 01:19:04;;;;;;;5.75;2.25;;;9.00;99.90;;;;;;5037909;28;20280;-78
2023/01/12 01:21:31;;;;;;;8.30;2.95;;;9.00;99.90;;;;;;5041221;28;20568;-78
2023/01/12 01:24:00;;;;;;;7.10;2.88;;;9.10;99.90;;;;;;5048191;28;20302;-78
2023/01/12 01:26:29;;;;;;;10.07;4.00;;;9.10;99.90;;;;;;5042375;28;20220;-77
2023/01/12 01:28:56;;;;;;;7.50;2.60;;;9.00;99.90;;;;;;5043538;28;20225;-78
2023/01/12 01:31:24;;;;;;;7.25;2.22;;;9.10;99.90;;;;;;5034391;28;20214;-78
2023/01/12 01:33:52;;;;;;;9.85;1.98;;;9.00;99.90;;;;;;5038145;28;20299;-77
2023/01/12 01:36:19;;;;;;;7.57;2.75;;;9.00;99.90;;;;;;5038980;28;20617;-78
2023/01/12 01:38:48;;;;;;;2.33;1.30;;;9.00;99.90;;;;;;5040867;28;20262;-77
2023/01/12 01:41:20;;;;;;;5.15;2.00;;;9.00;99.90;;;;;;5034748;28;20242;-79
2023/01/12 01:43:54;;;;;;;1.48;1.13;;;8.90;99.90;;;;;;5039008;28;20212;-77
2023/01/12 01:46:35;;;;;;;3.30;1.65;;;8.80;99.90;;;;;;5034533;28;20229;-78
2023/01/12 01:49:25;;;;;;;3.28;1.40;;;8.80;99.90;;;;;;5017432;28;20255;-77
2023/01/12 01:51:56;;;;;;;6.28;1.55;;;8.70;99.90;;;;;;5019488;28;20197;-78
2023/01/12 01:54:23;;;;;;;2.20;1.20;;;8.70;99.90;;;;;;5037386;28;20231;-79
2023/01/12 01:56:55;;;;;;;5.50;1.58;;;8.60;99.90;;;;;;5033631;28;20308;-79
2023/01/12 01:59:27;;;;;;;1.85;0.82;;;8.70;99.90;;;;;;5043911;28;20202;-78
2023/01/12 02:01:55;;;;;;;4.05;1.20;;;8.60;99.90;;;;;;5029163;28;20239;-78
2023/01/12 02:04:24;;;;;;;6.38;1.30;;;8.50;99.90;;;;;;5034815;28;20239;-78
2023/01/12 02:06:52;;;;;;;2.63;1.63;;;8.40;99.90;;;;;;5033258;28;20216;-79
2023/01/12 02:09:22;;;;;;;1.90;1.20;;;8.40;99.90;;;;;;5040727;28;20262;-78
2023/01/12 02:17:38;;;;;;;47.60;22.83;;;8.20;99.90;;;;;;5036055;28;20230;-79
2023/01/12 02:20:35;;;;;;;7.85;3.08;;;8.20;99.90;;;;;;5032480;28;20574;-80
2023/01/12 02:23:30;;;;;;;6.65;3.10;;;8.10;99.90;;;;;;5047313;28;20722;-77
2023/01/12 02:26:43;;;;;;;5.97;2.33;;;8.10;99.90;;;;;;5031932;28;20255;-79
2023/01/12 02:29:41;;;;;;;9.07;3.95;;;8.10;99.90;;;;;;5013581;28;20311;-78
2023/01/12 02:32:19;;;;;;;10.15;3.00;;;8.10;99.90;;;;;;5033043;28;20693;-79
2023/01/12 02:34:51;;;;;;;13.60;5.10;;;8.10;99.90;;;;;;5034607;28;20227;-78
2023/01/12 02:37:25;;;;;;;10.48;4.00;;;8.20;99.90;;;;;;5032537;28;20744;-79
2023/01/12 02:39:58;;;;;;;7.93;3.13;;;8.10;99.90;;;;;;5027888;28;20219;-78
2023/01/12 02:42:40;;;;;;;8.65;2.80;;;8.20;99.90;;;;;;5074700;23;20219;-82
2023/01/12 02:45:36;;;;;;;19.60;4.18;;;8.20;99.90;;;;;;5055395;28;20272;-80
2023/01/12 02:48:12;;;;;;;5.78;3.88;;;8.30;99.90;;;;;;5062621;28;20275;-82
2023/01/12 02:50:45;;;;;;;8.10;3.25;;;8.40;99.90;;;;;;5063560;28;20265;-82
2023/01/12 02:53:17;;;;;;;6.60;3.30;;;8.50;99.90;;;;;;5058252;28;20251;-80
2023/01/12 02:55:45;;;;;;;8.85;3.42;;;8.50;99.90;;;;;;5047353;28;20245;-79
2023/01/12 02:58:17;;;;;;;6.65;3.60;;;8.60;99.90;;;;;;5057083;28;20298;-79
2023/01/12 03:00:45;;;;;;;11.57;3.80;;;8.60;99.90;;;;;;5045388;28;20212;-80
2023/01/12 03:03:16;;;;;;;11.45;4.22;;;8.50;99.90;;;;;;5050437;28;20234;-80
2023/01/12 03:05:43;;;;;;;7.28;3.45;;;8.50;99.90;;;;;;5050706;28;20200;-80
2023/01/12 03:08:14;;;;;;;9.07;3.53;;;8.50;99.90;;;;;;5051542;28;20204;-81
2023/01/12 03:11:05;;;;;;;10.35;3.20;;;8.60;99.90;;;;;;5061857;28;20310;-80
2023/01/12 03:13:37;;;;;;;6.45;3.45;;;8.60;99.90;;;;;;5044906;28;20291;-80
2023/01/12 03:16:06;;;;;;;6.60;2.55;;;8.60;99.90;;;;;;5062309;28;20652;-81
2023/01/12 03:18:38;;;;;;;12.27;3.67;;;8.60;99.90;;;;;;5044041;28;20200;-80
2023/01/12 03:21:11;;;;;;;9.18;3.67;;;8.60;99.90;;;;;;5045062;28;20228;-81
2023/01/12 03:23:42;;;;;;;6.75;3.30;;;8.60;99.90;;;;;;5048687;28;20220;-81
2023/01/12 03:26:11;;;;;;;8.80;3.65;;;8.70;99.90;;;;;;5035183;28;20296;-80
2023/01/12 03:28:42;;;;;;;10.85;3.58;;;8.70;99.90;;;;;;5057717;28;20239;-80
2023/01/12 03:31:11;;;;;;;4.90;2.67;;;8.70;99.90;;;;;;5046700;28;20298;-81
2023/01/12 03:33:41;;;;;;;4.50;2.40;;;8.70;99.90;;;;;;5049633;28;20228;-82
2023/01/12 03:36:17;;;;;;;5.00;3.10;;;8.70;99.90;;;;;;5054693;28;20203;-80
2023/01/12 03:38:52;;;;;;;5.20;2.33;;;8.70;99.90;;;;;;5054682;28;20203;-82
2023/01/12 03:41:27;;;;;;;4.75;3.28;;;8.80;99.90;;;;;;5042041;28;20192;-79
2023/01/12 03:43:59;;;;;;;9.32;3.65;;;8.80;99.90;;;;;;5048731;28;20239;-81
2023/01/12 03:46:31;;;;;;;4.53;2.58;;;8.80;99.90;;;;;;5046209;28;20687;-79
2023/01/12 03:49:04;;;;;;;4.65;2.78;;;8.90;99.90;;;;;;5047552;28;20299;-79
2023/01/12 03:51:35;;;;;;;6.57;2.53;;;8.90;99.90;;;;;;5033706;28;20220;-80
2023/01/12 03:54:03;;;;;;;5.60;2.97;;;8.90;99.90;;;;;;5048561;28;20250;-79
2023/01/12 03:56:34;;;;;;;3.50;3.08;;;8.90;99.90;;;;;;5047738;28;20207;-79
2023/01/12 03:59:03;;;;;;;7.63;3.60;;;8.90;99.90;;;;;;5039024;28;20577;-79
2023/01/12 04:01:30;;;;;;;8.60;3.80;;;8.90;99.90;;;;;;5037808;28;20204;-79
2023/01/12 04:03:58;;;;;;;5.22;3.25;;;9.00;99.90;;;;;;5052303;28;20224;-81
2023/01/12 04:06:25;;;;;;;6.97;3.40;;;9.00;99.90;;;;;;5043679;28;20226;-80
2023/01/12 04:08:52;;;;;;;6.38;3.70;;;9.10;99.90;;;;;;5052233;28;20728;-81
2023/01/12 04:14:03;;;;;;;5.50;3.00;;;9.10;99.90;;;;;;5034353;28;20279;-80
2023/01/12 04:16:30;;;;;;;13.90;4.43;;;9.20;99.90;;;;;;5044865;28;20273;-80
2023/01/12 04:18:59;;;;;;;7.70;3.30;;;9.20;99.90;;;;;;5057858;28;20196;-82
2023/01/12 04:24:10;;;;;;;14.23;4.75;;;9.10;99.90;;;;;;5062112;28;20271;-80
2023/01/12 04:26:37;;;;;;;7.07;3.42;;;9.10;99.90;;;;;;5049398;28;20296;-80
2023/01/12 04:29:03;;;;;;;9.10;4.18;;;9.10;99.90;;;;;;5041997;28;20227;-80
2023/01/12 04:31:30;;;;;;;6.70;3.83;;;9.10;99.90;;;;;;5058402;28;20710;-80
2023/01/12 04:33:58;;;;;;;7.95;4.20;;;9.20;99.90;;;;;;5056281;28;20223;-79
2023/01/12 04:36:25;;;;;;;9.23;4.05;;;9.10;99.90;;;;;;5056290;28;20669;-79
2023/01/12 04:38:53;;;;;;;8.27;3.50;;;9.20;99.90;;;;;;5055061;28;20196;-80
2023/01/12 04:41:20;;;;;;;10.32;3.88;;;9.10;99.90;;;;;;5053400;28;20199;-81
2023/01/12 04:43:47;;;;;;;8.50;3.55;;;9.00;99.90;;;;;;5018129;28;20298;-80
2023/01/12 04:46:14;;;;;;;12.48;4.35;;;9.10;99.90;;;;;;5022169;28;20205;-78
2023/01/12 04:48:44;;;;;;;8.95;3.80;;;9.10;99.90;;;;;;5013180;28;20236;-80
2023/01/12 04:51:12;;;;;;;6.85;3.40;;;9.10;99.90;;;;;;5025294;28;20273;-78
2023/01/12 04:53:39;;;;;;;8.65;3.97;;;9.10;99.90;;;;;;5019265;28;20309;-79
2023/01/12 04:56:07;;;;;;;5.68;3.55;;;9.10;99.90;;;;;;5014313;28;20250;-79
2023/01/12 04:58:35;;;;;;;7.10;3.95;;;9.00;99.90;;;;;;5019214;28;20491;-80
2023/01/12 05:01:09;;;;;;;10.90;4.15;;;9.10;99.90;;;;;;5025069;28;20292;-81
2023/01/12 05:03:36;;;;;;;7.95;4.28;;;9.10;99.90;;;;;;5015409;28;20238;-79
2023/01/12 05:06:03;;;;;;;8.95;3.65;;;9.10;99.90;;;;;;5015130;28;20665;-80
2023/01/12 05:11:16;;;;;;;10.70;3.90;;;9.10;99.90;;;;;;5021933;28;20228;-80
2023/01/12 05:13:43;;;;;;;7.93;3.92;;;9.00;99.90;;;;;;5019532;28;20327;-80
2023/01/12 05:16:12;;;;;;;8.95;3.92;;;9.00;99.90;;;;;;5026685;28;20204;-79
2023/01/12 05:18:39;;;;;;;9.27;4.00;;;9.00;99.90;;;;;;5023647;28;20208;-81
2023/01/12 05:21:06;;;;;;;4.63;3.45;;;9.10;99.90;;;;;;5023292;28;20197;-80
2023/01/12 05:23:34;;;;;;;8.30;3.42;;;9.10;99.90;;;;;;5022839;28;20249;-80
2023/01/12 05:26:02;;;;;;;10.70;3.03;;;9.10;99.90;;;;;;5005359;28;20265;-82
2023/01/12 05:28:29;;;;;;;5.55;3.63;;;9.10;99.90;;;;;;5020786;28;20202;-81
2023/01/12 05:31:02;;;;;;;3.58;2.35;;;9.10;99.90;;;;;;5021830;28;20250;-81
2023/01/12 05:33:29;;;;;;;7.82;4.15;;;9.10;99.90;;;;;;5016074;28;20233;-79
2023/01/12 05:35:56;;;;;;;7.07;2.80;;;9.10;99.90;;;;;;5018012;28;20196;-80
2023/01/12 05:38:23;;;;;;;3.75;2.63;;;9.10;99.90;;;;;;5028370;28;20736;-82
2023/01/12 05:40:51;;;;;;;5.93;2.70;;;9.10;99.90;;;;;;5009451;28;20265;-81
2023/01/12 05:46:03;;;;;;;6.70;2.55;;;9.10;99.90;;;;;;5021510;28;20201;-81
2023/01/12 05:48:30;;;;;;;13.90;2.70;;;8.80;99.90;;;;;;5032329;28;20197;-80
2023/01/12 05:51:00;;;;;;;6.25;2.72;;;9.10;99.90;;;;;;5034416;28;20249;-79
2023/01/12 05:53:27;;;;;;;10.85;4.05;;;9.10;99.90;;;;;;5036227;28;20221;-79
2023/01/12 05:55:56;;;;;;;4.25;2.50;;;9.20;99.90;;;;;;5024387;28;20214;-80
2023/01/12 05:58:23;;;;;;;6.82;2.72;;;9.20;99.90;;;;;;5035691;28;20236;-80
2023/01/12 06:00:50;;;;;;;8.38;2.40;;;9.20;99.90;;;;;;5024979;28;20316;-81
2023/01/12 06:03:17;;;;;;;4.65;2.42;;;9.20;99.90;;;;;;5034367;28;20221;-82
2023/01/12 06:05:44;;;;;;;6.07;2.53;;;9.20;99.90;;;;;;5029816;28;20215;-81
2023/01/12 06:08:11;;;;;;;6.72;2.85;;;9.20;99.90;;;;;;5027186;28;20237;-79
2023/01/12 06:10:39;;;;;;;5.40;2.35;;;9.20;99.90;;;;;;5032479;28;20290;-80
2023/01/12 06:15:51;;;;;;;6.57;2.70;;;9.20;99.90;;;;;;5031817;28;20230;-82
2023/01/12 06:18:21;;;;;;;4.32;3.13;;;9.20;99.90;;;;;;5024464;28;20282;-82
2023/01/12 06:20:48;;;;;;;5.93;2.95;;;9.20;99.90;;;;;;5029295;28;20268;-81
2023/01/12 06:23:15;;;;;;;4.00;2.13;;;9.10;99.90;;;;;;5021000;28;20763;-80
2023/01/12 06:25:42;;;;;;;5.30;2.70;;;9.20;99.90;;;;;;5022847;28;20232;-81
2023/01/12 06:28:12;;;;;;;5.70;2.78;;;9.20;99.90;;;;;;5025433;28;20299;-80
2023/01/12 06:30:39;;;;;;;5.55;3.83;;;9.20;99.90;;;;;;5024854;28;20252;-81
2023/01/12 06:33:06;;;;;;;4.75;2.70;;;9.20;99.90;;;;;;5033084;28;20243;-80
2023/01/12 06:35:33;;;;;;;8.98;2.80;;;9.30;99.90;;;;;;5027150;28;20596;-81
2023/01/12 06:38:00;;;;;;;4.45;2.65;;;9.20;99.90;;;;;;5037132;28;20200;-82
2023/01/12 06:40:27;;;;;;;7.43;3.63;;;9.30;99.90;;;;;;5026952;28;20227;-81
2023/01/12 06:42:53;;;;;;;9.43;3.10;;;9.20;99.90;;;;;;5021378;28;20300;-81
2023/01/12 06:45:22;;;;;;;7.22;5.18;;;9.20;99.90;;;;;;5035090;28;20202;-81
2023/01/12 06:47:50;;;;;;;6.93;4.53;;;9.30;99.90;;;;;;5028292;28;20205;-83
2023/01/12 06:50:17;;;;;;;9.52;4.55;;;9.20;99.90;;;;;;5046294;28;20276;-81
2023/01/12 06:52:44;;;;;;;10.40;5.13;;;9.20;99.90;;;;;;5040636;28;20304;-81
2023/01/12 06:55:11;;;;;;;6.25;4.10;;;9.30;99.90;;;;;;5051350;28;20270;-82
2023/01/12 06:57:38;;;;;;;6.60;5.07;;;9.30;99.90;;;;;;5051784;28;20275;-81
2023/01/12 07:00:06;;;;;;;7.20;4.55;;;9.30;99.90;;;;;;5044326;28;20239;-81
2023/01/12 07:02:34;;;;;;;4.47;2.80;;;9.20;99.90;;;;;;5067191;28;20283;-81
2023/01/12 07:05:01;;;;;;;5.85;2.90;;;9.20;99.90;;;;;;5042707;28;20272;-80
2023/01/12 07:07:28;;;;;;;4.35;2.90;;;9.20;99.90;;;;;;5038696;28;20207;-82
2023/01/12 07:09:54;;;;;;;6.03;2.78;;;9.20;99.90;;;;;;5051266;28;20213;-81
2023/01/12 07:12:21;;;;;;;4.70;3.42;;;9.20;99.90;;;;;;5047820;28;20224;-81
2023/01/12 07:14:48;;;;;;;6.03;2.90;;;9.20;99.90;;;;;;5033794;28;20295;-82
2023/01/12 07:17:15;;;;;;;4.93;2.30;;;9.20;99.90;;;;;;5060353;28;20216;-80
2023/01/12 07:19:43;;;;;;;4.45;3.53;;;9.20;99.90;;;;;;5064671;28;20246;-78
2023/01/12 07:22:11;;;;;;;4.22;2.30;;;9.20;99.90;;;;;;5055152;28;20261;-81
2023/01/12 07:24:39;;;;;;;5.00;2.75;;;9.20;99.90;;;;;;5037910;28;20259;-80
2023/01/12 07:27:06;;;;;;;3.97;2.40;;;9.20;99.90;;;;;;5044679;28;20192;-82
2023/01/12 07:29:33;;;;;;;4.05;2.10;;;9.10;99.90;;;;;;5049078;28;20290;-81
2023/01/12 07:32:00;;;;;;;7.82;1.98;;;9.00;99.90;;;;;;5035283;28;20220;-82
2023/01/12 07:34:28;;;;;;;4.70;2.20;;;9.00;99.90;;;;;;5054286;28;20234;-81
2023/01/12 07:36:57;;;;;;;3.70;1.40;;;9.00;99.90;;;;;;5042162;28;20215;-81
2023/01/12 07:39:24;;;;;;;2.45;1.98;;;8.90;99.90;;;;;;5040852;28;20228;-80
2023/01/12 07:44:35;;;;;;;4.00;1.90;;;8.90;99.90;;;;;;5043649;28;20212;-81
2023/01/12 07:47:02;;;;;;;4.97;2.42;;;8.90;99.90;;;;;;5046632;28;20252;-85
2023/01/12 07:49:29;;;;;;;11.10;3.75;;;8.80;99.90;;;;;;5048374;28;20210;-82
2023/01/12 07:51:58;;;;;;;2.70;1.90;;;8.80;99.90;;;;;;5064126;28;20702;-82
2023/01/12 07:54:24;;;;;;;3.63;2.40;;;8.80;99.90;;;;;;5058148;28;20595;-81
2023/01/12 07:56:51;;;;;;;6.72;2.50;;;8.70;99.90;;;;;;5057351;28;20213;-83
2023/01/12 07:59:18;;;;;;;3.17;1.58;;;8.70;99.90;;;;;;5054241;28;20238;-81
2023/01/12 08:01:45;;;;;;;1.65;1.40;;;8.80;99.90;;;;;;5040790;28;20228;-80
2023/01/12 08:04:12;;;;;;;2.05;1.90;;;8.80;99.90;;;;;;5055853;28;20257;-79
2023/01/12 08:06:39;;;;;;;4.43;1.95;;;8.80;99.90;;;;;;5040573;28;20689;-84
2023/01/12 08:09:08;;;;;;;2.63;1.35;;;8.90;99.90;;;;;;5058295;28;20215;-86
2023/01/12 08:11:38;;;;;;;2.95;1.73;;;8.80;99.90;;;;;;5047308;28;20246;-85
2023/01/12 08:14:05;;;;;;;2.63;2.10;;;8.90;99.90;;;;;;5057460;28;20205;-89
2023/01/12 08:16:35;;;;;;;2.75;1.90;;;8.90;99.90;;;;;;5056908;28;20228;-86
2023/01/12 08:19:07;;;;;;;3.03;1.90;;;8.90;99.90;;;;;;5054988;28;20204;-83
2023/01/12 08:21:40;;;;;;;3.45;1.98;;;8.90;99.90;;;;;;5068587;28;20223;-86
2023/01/12 08:24:09;;;;;;;4.55;1.73;;;8.90;99.90;;;;;;5040305;28;20242;-85
2023/01/12 08:26:39;;;;;;;1.85;1.60;;;9.00;99.90;;;;;;5047541;28;20216;-84
2023/01/12 08:29:10;;;;;;;2.50;2.10;;;9.00;99.90;;;;;;5044653;28;20712;-83
2023/01/12 08:31:38;;;;;;;3.20;1.88;;;9.10;99.90;;;;;;5045762;28;20287;-81
2023/01/12 08:34:07;;;;;;;2.05;1.85;;;9.10;99.90;;;;;;5052841;28;20285;-85
2023/01/12 08:36:35;;;;;;;1.50;1.40;;;9.10;99.90;;;;;;5055845;28;20363;-84
2023/01/12 08:39:03;;;;;;;1.95;1.70;;;9.10;99.90;;;;;;5035538;28;20269;-83
2023/01/12 08:41:36;;;;;;;5.43;1.70;;;9.10;99.90;;;;;;5046432;28;20200;-82
2023/01/12 08:54:14;;;;;;;2.88;1.73;;;9.20;99.90;;;;;;4998656;28;20313;-83
2023/01/12 08:56:44;;;;;;;4.43;1.70;;;9.30;99.90;;;;;;4929249;28;20210;-83
2023/01/12 09:06:28;;;;;;;3.80;1.58;;;9.30;99.90;;;;;;5037649;28;20213;-85
2023/01/12 09:09:26;;;;;;;2.13;1.83;;;9.40;99.90;;;;;;5044522;28;20217;-83
2023/01/12 09:11:54;;;;;;;2.78;1.77;;;9.40;99.90;;;;;;5042457;28;20208;-83
2023/01/12 09:14:22;;;;;;;1.35;1.25;;;9.40;99.90;;;;;;5032867;28;20313;-84
2023/01/12 09:16:49;;;;;;;4.03;1.77;;;9.40;99.90;;;;;;5042852;28;20239;-84
2023/01/12 09:19:17;;;;;;;1.58;1.42;;;9.40;99.90;;;;;;5036510;28;20285;-84
2023/01/12 09:21:44;;;;;;;1.95;1.80;;;9.50;99.90;;;;;;5044231;28;20227;-83
2023/01/12 09:24:13;;;;;;;2.17;1.73;;;9.50;99.90;;;;;;5049783;28;20279;-84
2023/01/12 09:26:42;;;;;;;1.98;1.77;;;9.50;99.90;;;;;;5054621;28;20209;-84
2023/01/12 09:29:20;;;;;;;2.47;2.20;;;9.60;99.90;;;;;;5050198;28;20213;-86
2023/01/12 09:31:57;;;;;;;3.45;1.30;;;9.60;99.90;;;;;;5046545;28;20221;-87
2023/01/12 09:34:24;;;;;;;1.33;1.23;;;9.60;99.90;;;;;;5049714;28;20218;-87
2023/01/12 09:37:06;;;;;;;;;;;;;;;;;;;;;
2023/01/12 09:39:33;;;;;;;1.27;1.02;;;9.70;99.90;;;;;;5039420;28;20231;-84
2023/01/12 09:47:38;;;;;;;1.73;1.15;;;9.80;99.90;;;;;;5042904;28;20235;-84
2023/01/12 09:50:09;;;;;;;1.40;1.05;;;9.90;99.90;;;;;;5045651;28;20662;-84
2023/01/12 09:52:39;;;;;;;2.65;1.00;;;9.90;99.90;;;;;;5048587;28;20217;-84
2023/01/12 09:55:14;;;;;;;1.10;1.00;;;10.00;99.90;;;;;;5043652;28;20228;-84
2023/01/12 09:57:58;;;;;;;1.70;1.00;;;10.00;99.90;;;;;;5040788;28;20295;-83
2023/01/12 10:00:28;;;;;;;1.20;0.82;;;10.00;99.90;;;;;;5046962;28;20579;-82
2023/01/12 10:03:06;;;;;;;2.08;1.13;;;10.00;99.90;;;;;;5040826;28;20228;-82
2023/01/12 10:05:40;;;;;;;1.00;0.90;;;10.10;99.90;;;;;;5041745;28;20594;-83
2023/01/12 10:08:14;;;;;;;1.42;1.10;;;10.10;99.90;;;;;;5042710;28;20233;-84
2023/01/12 10:10:45;;;;;;;1.30;0.90;;;10.10;99.90;;;;;;5038609;28;20209;-85
2023/01/12 10:13:14;;;;;;;4.50;1.20;;;10.10;99.90;;;;;;5046152;28;20217;-83
2023/01/12 10:15:47;;;;;;;7.50;2.45;;;10.20;99.90;;;;;;5045512;28;20255;-84
2023/01/12 10:18:26;;;;;;;1.17;1.08;;;10.20;99.90;;;;;;5044049;28;20203;-83
2023/01/12 10:20:55;;;;;;;3.15;0.98;;;10.20;99.90;;;;;;5045249;28;20267;-84
2023/01/12 10:23:26;;;;;;;1.90;1.23;;;10.30;99.90;;;;;;5043631;28;20803;-83
2023/01/12 10:26:04;;;;;;;2.15;0.93;;;10.30;99.90;;;;;;5050589;28;20192;-84
2023/01/12 10:28:36;;;;;;;2.00;1.13;;;10.30;99.90;;;;;;5046804;28;20242;-85
2023/01/12 10:31:04;;;;;;;2.70;1.23;;;10.20;99.90;;;;;;5044826;28;20226;-85
2023/01/12 10:33:33;;;;;;;1.55;1.30;;;10.30;99.90;;;;;;5042612;28;20340;-85
2023/01/12 10:36:03;;;;;;;1.55;1.00;;;10.40;99.90;;;;;;5043704;28;20205;-84
2023/01/12 10:38:33;;;;;;;1.65;1.50;;;10.40;99.90;;;;;;5046415;28;20201;-85
2023/01/12 10:41:15;;;;;;;1.42;1.25;;;10.40;99.90;;;;;;5046202;28;20199;-85
2023/01/12 10:43:44;;;;;;;1.80;1.38;;;10.40;99.90;;;;;;5040735;28;20585;-84
2023/01/12 10:46:14;;;;;;;1.63;1.27;;;10.50;99.90;;;;;;5032445;28;20204;-86
2023/01/12 10:48:44;;;;;;;1.25;1.15;;;10.50;99.90;;;;;;5014475;28;20212;-84
2023/01/12 10:51:25;;;;;;;1.52;1.08;;;10.50;99.90;;;;;;5025263;28;20232;-84
2023/01/12 10:53:56;;;;;;;1.77;1.65;;;10.50;99.90;;;;;;5024132;28;20705;-84
2023/01/12 10:56:35;;;;;;;1.38;0.98;;;10.60;99.90;;;;;;5026308;28;20219;-84
2023/01/12 10:59:04;;;;;;;1.83;1.00;;;10.60;99.90;;;;;;5026355;28;20204;-84
2023/01/12 11:01:47;;;;;;;0.90;0.82;;;10.80;99.90;;;;;;5028405;28;20196;-84
2023/01/12 11:04:19;;;;;;;1.15;1.05;;;10.80;99.90;;;;;;5036011;28;20215;-83
2023/01/12 11:06:56;;;;;;;2.05;1.60;;;10.80;99.90;;;;;;5025271;28;20202;-84
2023/01/12 11:09:25;;;;;;;1.73;1.20;;;10.80;99.90;;;;;;5035817;28;20207;-83
2023/01/12 11:11:56;;;;;;;1.40;1.27;;;10.80;99.90;;;;;;5030921;28;20224;-84
2023/01/12 11:14:30;;;;;;;2.75;1.30;;;11.00;99.90;;;;;;5018847;28;20311;-84
2023/01/12 11:17:21;;;;;;;2.97;1.02;;;10.80;99.90;;;;;;5030166;28;20282;-84
2023/01/12 11:19:51;;;;;;;3.45;1.60;;;10.80;99.90;;;;;;5022125;28;20208;-84
2023/01/12 11:22:22;;;;;;;1.40;1.20;;;10.80;99.90;;;;;;5032112;28;20224;-84
2023/01/12 11:24:56;;;;;;;4.97;1.63;;;10.90;99.90;;;;;;5030901;28;20278;-83
2023/01/12 11:27:29;;;;;;;1.10;1.00;;;10.80;99.90;;;;;;5030230;28;20222;-84
2023/01/12 11:29:59;;;;;;;1.42;1.33;;;10.80;99.90;;;;;;5034553;28;20212;-84
2023/01/12 11:32:36;;;;;;;2.38;1.58;;;10.90;99.90;;;;;;5029110;28;20214;-84
2023/01/12 11:35:16;;;;;;;3.25;1.35;;;10.80;99.90;;;;;;5016182;28;20364;-87
2023/01/12 11:37:45;;;;;;;2.15;1.95;;;10.80;99.90;;;;;;5025882;28;20204;-83
2023/01/12 11:40:29;;;;;;;1.80;1.58;;;10.90;99.90;;;;;;5025239;28;20231;-84
2023/01/12 11:45:51;;;;;;;2.03;1.88;;;11.00;99.90;;;;;;5042564;28;20221;-85
2023/01/12 11:48:27;;;;;;;3.33;2.15;;;10.90;99.90;;;;;;5049090;28;20209;-85
2023/01/12 11:50:56;;;;;;;2.00;1.90;;;10.90;99.90;;;;;;5050900;28;20210;-84
2023/01/12 11:53:25;;;;;;;2.80;2.08;;;11.00;99.90;;;;;;5050346;28;20238;-84
2023/01/12 11:56:17;;;;;;;2.88;2.00;;;11.10;99.90;;;;;;5049046;28;20237;-86
2023/01/12 11:58:51;;;;;;;3.72;2.30;;;11.20;99.90;;;;;;5059507;28;20209;-85
2023/01/12 12:01:24;;;;;;;2.85;2.42;;;11.20;99.90;;;;;;5047284;28;20266;-86
2023/01/12 12:04:17;;;;;;;4.53;2.22;;;11.40;99.90;;;;;;5047803;28;20242;-85
2023/01/12 12:07:06;;;;;;;2.85;2.20;;;11.40;99.90;;;;;;5044534;28;20211;-85
2023/01/12 12:09:51;;;;;;;3.25;1.90;;;11.50;99.90;;;;;;5042968;28;20212;-85
2023/01/12 12:12:26;;;;;;;3.08;1.70;;;11.50;99.90;;;;;;5047704;28;20218;-84
2023/01/12 12:15:12;;;;;;;2.28;1.85;;;11.60;99.90;;;;;;5047071;28;20230;-84
2023/01/12 12:17:52;;;;;;;2.10;1.60;;;11.50;99.90;;;;;;5046683;28;20207;-86
2023/01/12 12:20:29;;;;;;;1.95;1.85;;;11.70;99.90;;;;;;5051218;28;20607;-84
2023/01/12 12:23:11;;;;;;;2.42;1.80;;;11.70;99.90;;;;;;5050274;28;20346;-84
2023/01/12 12:25:51;;;;;;;4.75;1.80;;;11.70;99.90;;;;;;5044208;28;20250;-84
2023/01/12 12:29:07;;;;;;;3.17;1.80;;;11.70;99.90;;;;;;5050315;28;20210;-84
2023/01/12 12:31:57;;;;;;;3.45;1.75;;;11.70;99.90;;;;;;4985862;28;20216;-83
2023/01/12 12:34:57;;;;;;;1.77;1.30;;;11.70;99.90;;;;;;4963868;28;20247;-83
2023/01/12 12:37:38;;;;;;;2.00;1.50;;;11.70;99.90;;;;;;5034509;28;20211;-84
2023/01/12 12:40:16;;;;;;;1.73;1.63;;;11.70;99.90;;;;;;5046182;28;20198;-84
2023/01/12 12:45:46;;;;;;;2.08;1.73;;;11.80;99.90;;;;;;5040235;28;20222;-84
2023/01/12 12:48:17;;;;;;;1.33;1.20;;;11.70;99.90;;;;;;5044800;28;20268;-85
2023/01/12 12:50:51;;;;;;;1.73;1.60;;;11.70;99.90;;;;;;5041964;28;20454;-85
2023/01/12 12:53:26;;;;;;;2.45;1.40;;;11.70;99.90;;;;;;5044181;28;20232;-86
2023/01/12 12:55:54;;;;;;;2.53;1.63;;;11.70;99.90;;;;;;5042283;28;20604;-85
2023/01/12 12:58:43;;;;;;;1.98;1.15;;;11.60;99.90;;;;;;5043772;28;20530;-84
2023/01/12 13:02:04;;;;;;;1.48;1.38;;;11.60;99.90;;;;;;5038104;28;20299;-84
2023/01/12 13:05:01;;;;;;;1.10;1.00;;;11.60;99.90;;;;;;5044830;28;20270;-85
2023/01/12 13:07:28;;;;;;;1.63;1.52;;;11.60;99.90;;;;;;5039282;28;20411;-85
2023/01/12 13:10:24;;;;;;;1.75;1.30;;;11.60;99.90;;;;;;5050561;28;20239;-84
2023/01/12 13:13:04;;;;;;;1.75;1.60;;;11.50;99.90;;;;;;5040013;28;20203;-84
2023/01/12 13:15:35;;;;;;;2.80;1.65;;;11.60;99.90;;;;;;5037536;28;20239;-84
2023/01/12 13:18:04;;;;;;;2.28;1.50;;;11.60;99.90;;;;;;5042901;28;20607;-84
2023/01/12 13:20:50;;;;;;;2.28;2.08;;;11.50;99.90;;;;;;5042074;28;20215;-85
2023/01/12 13:23:46;;;;;;;5.32;1.75;;;11.70;99.90;;;;;;5042399;28;20223;-85
2023/01/12 13:26:39;;;;;;;2.85;2.08;;;11.70;99.90;;;;;;5035973;28;20199;-84
2023/01/12 13:29:38;;;;;;;2.10;1.90;;;11.70;99.90;;;;;;5046215;28;20215;-85
2023/01/12 13:32:35;;;;;;;3.67;2.40;;;11.70;99.90;;;;;;5048467;28;20203;-86
2023/01/12 13:35:02;;;;;;;2.40;2.20;;;11.60;99.90;;;;;;5045027;28;20667;-85
2023/01/12 13:37:38;;;;;;;2.70;2.03;;;11.60;99.90;;;;;;5043566;28;20302;-84
2023/01/12 13:40:13;;;;;;;2.50;2.20;;;11.60;99.90;;;;;;5044582;28;20222;-85
2023/01/12 13:45:28;;;;;;;4.40;2.30;;;11.60;99.90;;;;;;5043248;28;20644;-85
2023/01/12 13:47:54;;;;;;;6.78;2.95;;;11.60;99.90;;;;;;5042511;28;20578;-84
2023/01/12 13:50:24;;;;;;;6.28;3.35;;;11.60;99.90;;;;;;5042098;28;20295;-83
2023/01/12 13:52:59;;;;;;;3.65;2.65;;;11.60;99.90;;;;;;5039751;28;20233;-85
2023/01/12 13:55:27;;;;;;;2.78;2.50;;;11.70;99.90;;;;;;5042026;28;20290;-85
2023/01/12 13:58:01;;;;;;;5.90;4.05;;;11.60;99.90;;;;;;5041214;28;20200;-84
2023/01/12 14:00:31;;;;;;;3.75;2.35;;;11.60;99.90;;;;;;5044969;28;20294;-86
2023/01/12 14:02:59;;;;;;;3.80;2.35;;;11.60;99.90;;;;;;5041480;28;20606;-86
2023/01/12 14:05:51;;;;;;;3.70;3.38;;;11.40;99.90;;;;;;5041594;28;20569;-84
2023/01/12 14:08:44;;;;;;;3.95;3.47;;;11.50;99.90;;;;;;5040562;28;20735;-85
2023/01/12 14:11:40;;;;;;;3.45;3.15;;;11.50;99.90;;;;;;5032194;28;20200;-85
2023/01/12 14:20:15;;;;;;;4.13;2.90;;;11.50;99.90;;;;;;5040390;28;20690;-86
2023/01/12 14:22:41;;;;;;;4.10;3.60;;;11.50;99.90;;;;;;5041966;28;20281;-85
2023/01/12 14:25:15;;;;;;;6.50;3.38;;;11.50;99.90;;;;;;5042773;28;20247;-86